Time;durP1;ratioP1;P1;durP2;ratioP2;P2;SDS_P1;SDS_P2;PMS_P1;PMS_P2;Temp;Humidity;BMP_temperature;BMP_pressure;BME280_temperature;BME280_humidity;BME280_pressure;Samples;Min_cycle;Max_cycle;Signal;HPM_P1;HPM_P2
2023/07/22 00:01:38;;;;;;;3.33;2.97;;;;;;;;;;5159771;27;20198;-62
2023/07/22 00:04:04;;;;;;;3.05;2.85;;;;;;;;;;5151259;27;20494;-62
2023/07/22 00:06:31;;;;;;;3.65;2.63;;;;;;;;;;5153758;27;20236;-62
2023/07/22 00:08:57;;;;;;;3.20;3.00;;;;;;;;;;5155122;27;20231;-62
2023/07/22 00:11:23;;;;;;;3.45;2.72;;;;;;;;;;5155000;27;20525;-62
2023/07/22 00:13:50;;;;;;;2.97;2.83;;;;;;;;;;5154677;27;20270;-62
2023/07/22 00:16:16;;;;;;;2.97;2.88;;;;;;;;;;5154410;27;20200;-62
2023/07/22 00:18:44;;;;;;;3.30;3.05;;;;;;;;;;5151283;27;20194;-62
2023/07/22 00:21:10;;;;;;;3.65;2.65;;;;;;;;;;5151579;27;20203;-62
2023/07/22 00:23:36;;;;;;;2.75;2.53;;;;;;;;;;5154544;27;20194;-62
2023/07/22 00:26:03;;;;;;;3.05;2.83;;;;;;;;;;5154847;27;20193;-62
2023/07/22 00:28:29;;;;;;;2.90;2.80;;;;;;;;;;5152384;27;20217;-62
2023/07/22 00:30:57;;;;;;;3.22;2.92;;;;;;;;;;5151293;27;20195;-62
2023/07/22 00:33:23;;;;;;;2.95;2.67;;;;;;;;;;5152105;27;20556;-62
2023/07/22 00:35:51;;;;;;;2.75;2.55;;;;;;;;;;5154628;27;20430;-62
2023/07/22 00:38:17;;;;;;;2.63;2.40;;;;;;;;;;5154170;27;20194;-62
2023/07/22 00:40:44;;;;;;;2.47;2.38;;;;;;;;;;5151107;27;20198;-62
2023/07/22 00:43:10;;;;;;;4.30;2.78;;;;;;;;;;5150728;27;20190;-62
2023/07/22 00:45:37;;;;;;;3.45;2.70;;;;;;;;;;5155044;27;20205;-62
2023/07/22 00:48:03;;;;;;;3.10;2.80;;;;;;;;;;5154736;27;20198;-62
2023/07/22 00:50:30;;;;;;;4.60;2.50;;;;;;;;;;5156885;27;20202;-62
2023/07/22 00:52:57;;;;;;;3.38;2.22;;;;;;;;;;5158130;27;20222;-62
2023/07/22 00:55:24;;;;;;;4.35;2.38;;;;;;;;;;5156889;27;20205;-62
2023/07/22 00:57:50;;;;;;;3.47;2.38;;;;;;;;;;5154521;27;20206;-62
2023/07/22 01:00:16;;;;;;;3.08;2.50;;;;;;;;;;5154311;27;20190;-62
2023/07/22 01:02:43;;;;;;;4.18;2.42;;;;;;;;;;5157848;27;20216;-62
2023/07/22 01:05:10;;;;;;;2.70;2.50;;;;;;;;;;5159030;27;20194;-62
2023/07/22 01:07:38;;;;;;;2.08;1.98;;;;;;;;;;5156957;27;20210;-64
2023/07/22 01:10:06;;;;;;;2.17;2.08;;;;;;;;;;5158319;27;20231;-63
2023/07/22 01:12:33;;;;;;;3.20;2.70;;;;;;;;;;5155352;27;20513;-62
2023/07/22 01:14:59;;;;;;;2.97;2.20;;;;;;;;;;5153873;27;20670;-62
2023/07/22 01:17:26;;;;;;;8.40;2.65;;;;;;;;;;5155258;27;20206;-63
2023/07/22 01:19:52;;;;;;;2.05;1.95;;;;;;;;;;5157900;27;20198;-64
2023/07/22 01:22:19;;;;;;;2.47;2.25;;;;;;;;;;5157447;27;20205;-64
2023/07/22 01:24:46;;;;;;;2.28;2.10;;;;;;;;;;5153485;27;20386;-63
2023/07/22 01:27:14;;;;;;;2.40;2.20;;;;;;;;;;5154304;27;20237;-64
2023/07/22 01:29:40;;;;;;;3.10;2.30;;;;;;;;;;5157289;27;20193;-64
2023/07/22 01:32:06;;;;;;;2.60;2.40;;;;;;;;;;5157405;27;20194;-64
2023/07/22 01:34:33;;;;;;;2.20;2.10;;;;;;;;;;5154964;27;20499;-63
2023/07/22 01:36:59;;;;;;;2.55;2.42;;;;;;;;;;5153809;27;20471;-63
2023/07/22 01:39:27;;;;;;;4.10;2.63;;;;;;;;;;5154515;27;20198;-63
2023/07/22 01:41:54;;;;;;;2.88;2.47;;;;;;;;;;5157094;27;20194;-64
2023/07/22 01:44:21;;;;;;;2.65;2.55;;;;;;;;;;5156715;27;20386;-64
2023/07/22 01:46:47;;;;;;;2.70;2.50;;;;;;;;;;5153628;27;20373;-64
2023/07/22 01:49:14;;;;;;;2.38;2.28;;;;;;;;;;5153835;27;20416;-64
2023/07/22 01:51:41;;;;;;;3.58;2.38;;;;;;;;;;5156451;27;20209;-64
2023/07/22 01:54:08;;;;;;;2.65;2.55;;;;;;;;;;5156644;27;20210;-64
2023/07/22 01:56:35;;;;;;;2.33;2.22;;;;;;;;;;5153534;27;20208;-64
2023/07/22 01:59:03;;;;;;;5.35;2.65;;;;;;;;;;5153528;27;20502;-64
2023/07/22 02:01:29;;;;;;;2.60;2.40;;;;;;;;;;5154581;27;20206;-64
2023/07/22 02:03:55;;;;;;;3.22;2.45;;;;;;;;;;5156645;27;20506;-64
2023/07/22 02:06:22;;;;;;;2.53;2.22;;;;;;;;;;5156314;27;20206;-63
2023/07/22 02:08:48;;;;;;;3.55;3.25;;;;;;;;;;5153351;27;20210;-64
2023/07/22 02:11:14;;;;;;;2.63;2.47;;;;;;;;;;5153214;27;20410;-64
2023/07/22 02:13:40;;;;;;;2.95;2.72;;;;;;;;;;5155513;27;20403;-64
2023/07/22 02:16:11;;;;;;;2.47;2.45;;;;;;;;;;5153064;27;20422;-64
2023/07/22 02:18:37;;;;;;;2.88;2.55;;;;;;;;;;5155393;27;20202;-64
2023/07/22 02:21:03;;;;;;;2.60;2.50;;;;;;;;;;5156354;27;20494;-64
2023/07/22 02:23:30;;;;;;;3.10;2.40;;;;;;;;;;5155153;27;20198;-64
2023/07/22 02:25:56;;;;;;;4.70;2.53;;;;;;;;;;5152716;27;20260;-64
2023/07/22 02:28:23;;;;;;;2.70;2.50;;;;;;;;;;5152981;27;20440;-64
2023/07/22 02:30:50;;;;;;;3.15;2.75;;;;;;;;;;5156285;27;20290;-63
2023/07/22 02:33:17;;;;;;;3.40;2.80;;;;;;;;;;5156458;27;20194;-64
2023/07/22 02:35:43;;;;;;;2.78;2.58;;;;;;;;;;5153029;27;20194;-64
2023/07/22 02:38:10;;;;;;;6.93;2.78;;;;;;;;;;5152706;27;20232;-64
2023/07/22 02:40:36;;;;;;;2.40;2.20;;;;;;;;;;5154602;27;20205;-64
2023/07/22 02:43:03;;;;;;;2.35;2.15;;;;;;;;;;5156173;27;20373;-64
2023/07/22 02:45:29;;;;;;;2.30;2.20;;;;;;;;;;5154736;27;20200;-64
2023/07/22 02:47:55;;;;;;;2.70;2.50;;;;;;;;;;5152469;27;20204;-64
2023/07/22 02:50:23;;;;;;;2.55;2.45;;;;;;;;;;5152312;27;20205;-64
2023/07/22 02:52:49;;;;;;;2.50;2.33;;;;;;;;;;5144273;27;20198;-64
2023/07/22 02:55:18;;;;;;;3.17;2.70;;;;;;;;;;5151868;27;20210;-63
2023/07/22 02:57:46;;;;;;;2.50;2.40;;;;;;;;;;5155316;27;20516;-64
2023/07/22 03:00:12;;;;;;;2.55;2.45;;;;;;;;;;5155812;27;20198;-64
2023/07/22 03:02:39;;;;;;;3.20;2.42;;;;;;;;;;5153589;27;20205;-64
2023/07/22 03:05:07;;;;;;;2.85;2.42;;;;;;;;;;5149514;27;20257;-64
2023/07/22 03:07:35;;;;;;;3.13;2.10;;;;;;;;;;5153984;27;20542;-64
2023/07/22 03:10:01;;;;;;;2.42;2.28;;;;;;;;;;5152060;27;20231;-64
2023/07/22 03:12:28;;;;;;;2.50;2.38;;;;;;;;;;5152583;27;20229;-64
2023/07/22 03:14:54;;;;;;;2.17;2.08;;;;;;;;;;5155045;27;20214;-64
2023/07/22 03:17:20;;;;;;;2.40;2.30;;;;;;;;;;5155401;27;20202;-64
2023/07/22 03:19:47;;;;;;;2.80;2.15;;;;;;;;;;5152254;27;20199;-64
2023/07/22 03:22:15;;;;;;;3.08;2.75;;;;;;;;;;5151776;27;20194;-64
2023/07/22 03:24:43;;;;;;;2.35;2.20;;;;;;;;;;5154321;27;20197;-62
2023/07/22 03:27:09;;;;;;;2.28;2.17;;;;;;;;;;5155290;27;20415;-62
2023/07/22 03:29:36;;;;;;;2.70;2.50;;;;;;;;;;5153470;27;20201;-62
2023/07/22 03:32:03;;;;;;;4.32;2.05;;;;;;;;;;5151490;27;20390;-62
2023/07/22 03:34:29;;;;;;;3.80;2.08;;;;;;;;;;5152225;27;20218;-62
2023/07/22 03:36:55;;;;;;;2.65;2.20;;;;;;;;;;5155539;27;20194;-62
2023/07/22 03:39:22;;;;;;;2.28;2.15;;;;;;;;;;5155380;27;20554;-62
2023/07/22 03:41:50;;;;;;;2.88;2.28;;;;;;;;;;5151622;27;20194;-62
2023/07/22 03:44:16;;;;;;;2.80;2.63;;;;;;;;;;5151427;27;20238;-62
2023/07/22 03:46:42;;;;;;;2.30;2.20;;;;;;;;;;5153941;27;20226;-64
2023/07/22 03:49:09;;;;;;;3.25;2.78;;;;;;;;;;5155165;27;20230;-62
2023/07/22 03:51:35;;;;;;;2.75;2.40;;;;;;;;;;5153696;27;20201;-62
2023/07/22 03:54:01;;;;;;;2.90;2.70;;;;;;;;;;5151077;27;20214;-62
2023/07/22 03:56:28;;;;;;;3.67;2.65;;;;;;;;;;5152121;27;20206;-62
2023/07/22 03:58:55;;;;;;;2.70;2.47;;;;;;;;;;5155027;27;20198;-62
2023/07/22 04:01:21;;;;;;;2.92;2.75;;;;;;;;;;5154761;27;20561;-62
2023/07/22 04:03:48;;;;;;;3.00;2.85;;;;;;;;;;5151670;27;20539;-62
2023/07/22 04:06:14;;;;;;;4.00;2.80;;;;;;;;;;5151544;27;20200;-62
2023/07/22 04:08:40;;;;;;;3.30;3.00;;;;;;;;;;5153237;27;20202;-62
2023/07/22 04:11:06;;;;;;;2.38;2.17;;;;;;;;;;5154727;27;20270;-62
2023/07/22 04:13:34;;;;;;;2.47;2.35;;;;;;;;;;5153318;27;20217;-61
2023/07/22 04:16:01;;;;;;;4.20;3.13;;;;;;;;;;5150912;27;20433;-61
2023/07/22 04:18:33;;;;;;;2.60;2.50;;;;;;;;;;5151970;27;20269;-61
2023/07/22 04:20:59;;;;;;;3.15;2.00;;;;;;;;;;5159165;27;20194;-61
2023/07/22 04:23:25;;;;;;;3.03;2.45;;;;;;;;;;5158751;27;20201;-61
2023/07/22 04:25:52;;;;;;;3.38;2.63;;;;;;;;;;5155089;27;20371;-61
2023/07/22 04:28:18;;;;;;;3.08;2.83;;;;;;;;;;5155103;27;20223;-61
2023/07/22 04:30:55;;;;;;;3.45;2.40;;;;;;;;;;5157657;27;20202;-61
2023/07/22 04:33:22;;;;;;;2.80;2.63;;;;;;;;;;5158838;27;20517;-61
2023/07/22 04:35:48;;;;;;;2.97;2.17;;;;;;;;;;5155559;27;20411;-61
2023/07/22 04:38:15;;;;;;;3.35;3.10;;;;;;;;;;5155048;27;20446;-61
2023/07/22 04:40:43;;;;;;;3.75;2.53;;;;;;;;;;5156813;27;20203;-61
2023/07/22 04:43:09;;;;;;;2.90;2.70;;;;;;;;;;5158669;27;20194;-61
2023/07/22 04:45:35;;;;;;;3.17;2.75;;;;;;;;;;5157317;27;20202;-61
2023/07/22 04:48:02;;;;;;;2.70;2.60;;;;;;;;;;5155196;27;20531;-61
2023/07/22 04:50:29;;;;;;;2.55;2.45;;;;;;;;;;5154854;27;20204;-61
2023/07/22 04:52:56;;;;;;;2.47;2.38;;;;;;;;;;5154759;27;20202;-61
2023/07/22 04:55:22;;;;;;;2.90;2.75;;;;;;;;;;5154359;27;20217;-61
2023/07/22 04:57:51;;;;;;;4.32;2.55;;;;;;;;;;5158109;27;20236;-62
2023/07/22 05:00:19;;;;;;;7.07;2.47;;;;;;;;;;5158709;27;20235;-61
2023/07/22 05:02:46;;;;;;;2.35;2.22;;;;;;;;;;5158703;27;20198;-61
2023/07/22 05:05:13;;;;;;;3.00;2.78;;;;;;;;;;5158268;27;20193;-61
2023/07/22 05:07:40;;;;;;;3.53;2.63;;;;;;;;;;5156809;27;20205;-61
2023/07/22 05:10:11;;;;;;;3.35;2.70;;;;;;;;;;5154576;27;20506;-61
2023/07/22 05:12:38;;;;;;;3.05;2.83;;;;;;;;;;5155496;27;20198;-61
2023/07/22 05:15:04;;;;;;;3.05;2.85;;;;;;;;;;5157936;27;20254;-61
2023/07/22 05:17:31;;;;;;;4.00;2.75;;;;;;;;;;5157917;27;20202;-61
2023/07/22 05:19:57;;;;;;;2.78;2.63;;;;;;;;;;5154371;27;20204;-61
2023/07/22 05:22:23;;;;;;;3.55;2.63;;;;;;;;;;5154028;27;20289;-61
2023/07/22 05:24:51;;;;;;;3.35;2.97;;;;;;;;;;5156728;27;20217;-61
2023/07/22 05:27:17;;;;;;;3.20;2.92;;;;;;;;;;5157823;27;20450;-61
2023/07/22 05:29:44;;;;;;;3.40;3.20;;;;;;;;;;5154672;27;20416;-61
2023/07/22 05:32:11;;;;;;;3.58;3.28;;;;;;;;;;5153588;27;20201;-61
2023/07/22 05:34:37;;;;;;;3.72;3.42;;;;;;;;;;5154294;27;20263;-61
2023/07/22 05:37:04;;;;;;;3.90;3.70;;;;;;;;;;5157409;27;20425;-61
2023/07/22 05:39:30;;;;;;;4.05;3.40;;;;;;;;;;5157493;27;20505;-61
2023/07/22 05:41:58;;;;;;;5.28;3.53;;;;;;;;;;5153897;27;20509;-61
2023/07/22 05:44:24;;;;;;;3.60;3.33;;;;;;;;;;5153686;27;20196;-61
2023/07/22 05:46:50;;;;;;;5.60;3.65;;;;;;;;;;5156440;27;20202;-61
2023/07/22 05:49:16;;;;;;;5.05;3.20;;;;;;;;;;5157423;27;20494;-61
2023/07/22 05:51:43;;;;;;;3.83;3.53;;;;;;;;;;5155809;27;20266;-61
2023/07/22 05:54:09;;;;;;;5.43;3.40;;;;;;;;;;5153545;27;20195;-61
2023/07/22 05:56:35;;;;;;;4.90;3.53;;;;;;;;;;5154007;27;20198;-61
2023/07/22 05:59:03;;;;;;;3.92;3.35;;;;;;;;;;5157256;27;20251;-61
2023/07/22 06:01:29;;;;;;;3.13;2.97;;;;;;;;;;5157016;27;20208;-61
2023/07/22 06:03:55;;;;;;;2.85;2.75;;;;;;;;;;5153448;27;20194;-61
2023/07/22 06:06:22;;;;;;;3.30;3.10;;;;;;;;;;5153661;27;20386;-61
2023/07/22 06:08:48;;;;;;;3.40;3.20;;;;;;;;;;5155839;27;20367;-61
2023/07/22 06:11:14;;;;;;;4.32;3.40;;;;;;;;;;5157050;27;20194;-61
2023/07/22 06:13:40;;;;;;;3.13;2.90;;;;;;;;;;5155763;27;20197;-62
2023/07/22 06:16:08;;;;;;;3.65;3.40;;;;;;;;;;5153672;27;20267;-62
2023/07/22 06:18:34;;;;;;;3.55;3.00;;;;;;;;;;5153069;27;20198;-62
2023/07/22 06:21:00;;;;;;;3.72;3.13;;;;;;;;;;5156875;27;20234;-62
2023/07/22 06:23:27;;;;;;;3.15;2.95;;;;;;;;;;5156870;27;20201;-62
2023/07/22 06:25:53;;;;;;;2.92;2.83;;;;;;;;;;5153804;27;20202;-62
2023/07/22 06:28:19;;;;;;;3.38;2.80;;;;;;;;;;5152954;27;20222;-62
2023/07/22 06:30:45;;;;;;;3.50;3.20;;;;;;;;;;5154523;27;20202;-62
2023/07/22 06:33:13;;;;;;;4.35;3.30;;;;;;;;;;5156416;27;20197;-62
2023/07/22 06:35:39;;;;;;;2.60;2.50;;;;;;;;;;5155569;27;20217;-57
2023/07/22 06:38:05;;;;;;;2.97;2.78;;;;;;;;;;5153183;27;20194;-56
2023/07/22 06:40:32;;;;;;;3.10;2.90;;;;;;;;;;5152923;27;20229;-55
2023/07/22 06:42:58;;;;;;;4.00;3.33;;;;;;;;;;5155407;27;20197;-56
2023/07/22 06:45:24;;;;;;;3.00;2.35;;;;;;;;;;5156004;27;20200;-56
2023/07/22 06:47:50;;;;;;;3.30;3.00;;;;;;;;;;5153822;27;20198;-56
2023/07/22 06:50:18;;;;;;;3.17;2.97;;;;;;;;;;5152964;27;20241;-57
2023/07/22 06:52:44;;;;;;;2.67;2.55;;;;;;;;;;5153822;27;20205;-55
2023/07/22 06:55:10;;;;;;;2.33;2.22;;;;;;;;;;5155788;27;20273;-54
2023/07/22 06:57:37;;;;;;;3.65;2.63;;;;;;;;;;5156243;27;20537;-56
2023/07/22 07:00:05;;;;;;;6.82;3.08;;;;;;;;;;5152649;27;20514;-57
2023/07/22 07:02:31;;;;;;;7.57;3.40;;;;;;;;;;5152287;27;20270;-57
2023/07/22 07:04:57;;;;;;;3.22;3.03;;;;;;;;;;5155224;27;20198;-56
2023/07/22 07:07:25;;;;;;;3.40;2.80;;;;;;;;;;5156054;27;20197;-55
2023/07/22 07:09:51;;;;;;;2.90;2.72;;;;;;;;;;5153731;27;20201;-55
2023/07/22 07:12:17;;;;;;;6.35;3.25;;;;;;;;;;5152228;27;20555;-56
2023/07/22 07:14:44;;;;;;;6.40;3.38;;;;;;;;;;5152828;27;20518;-57
2023/07/22 07:17:10;;;;;;;3.08;2.78;;;;;;;;;;5155630;27;20202;-57
2023/07/22 07:19:36;;;;;;;3.42;2.75;;;;;;;;;;5155426;27;20197;-56
2023/07/22 07:22:02;;;;;;;8.00;3.17;;;;;;;;;;5155562;27;20198;-57
2023/07/22 07:24:30;;;;;;;3.25;2.92;;;;;;;;;;5155464;27;20204;-57
2023/07/22 07:26:56;;;;;;;2.92;2.72;;;;;;;;;;5152556;27;20198;-57
2023/07/22 07:29:22;;;;;;;3.15;2.83;;;;;;;;;;5151874;27;20198;-56
2023/07/22 07:31:49;;;;;;;5.75;3.30;;;;;;;;;;5153865;27;20578;-57
2023/07/22 07:34:15;;;;;;;6.90;2.88;;;;;;;;;;5155403;27;20513;-57
2023/07/22 07:36:41;;;;;;;9.48;3.00;;;;;;;;;;5154886;27;20217;-57
2023/07/22 07:39:08;;;;;;;4.25;3.05;;;;;;;;;;5151875;27;20194;-56
2023/07/22 07:41:35;;;;;;;6.18;2.50;;;;;;;;;;5151869;27;20194;-55
2023/07/22 07:44:01;;;;;;;9.15;3.08;;;;;;;;;;5154683;27;20261;-57
2023/07/22 07:46:29;;;;;;;39.70;3.97;;;;;;;;;;5155425;27;20200;-57
2023/07/22 07:48:56;;;;;;;14.02;2.85;;;;;;;;;;5152740;27;20428;-57
2023/07/22 07:51:24;;;;;;;30.77;3.45;;;;;;;;;;5151621;27;20503;-56
2023/07/22 07:53:51;;;;;;;73.30;5.82;;;;;;;;;;5154411;27;20198;-56
2023/07/22 07:56:18;;;;;;;4.53;2.75;;;;;;;;;;5159229;27;20254;-57
2023/07/22 07:58:46;;;;;;;18.95;3.33;;;;;;;;;;5158381;27;20204;-57
2023/07/22 08:01:12;;;;;;;12.10;2.92;;;;;;;;;;5155633;27;20265;-56
2023/07/22 08:03:39;;;;;;;2.72;2.40;;;;;;;;;;5155705;27;20314;-57
2023/07/22 08:06:06;;;;;;;3.92;2.60;;;;;;;;;;5147378;27;20191;-57
2023/07/22 08:08:32;;;;;;;8.75;2.72;;;;;;;;;;5155602;27;20205;-58
2023/07/22 08:11:00;;;;;;;3.80;2.60;;;;;;;;;;5158073;27;20518;-57
2023/07/22 08:13:26;;;;;;;3.70;2.28;;;;;;;;;;5159039;27;20190;-56
2023/07/22 08:15:54;;;;;;;4.18;2.47;;;;;;;;;;5157090;27;20220;-56
2023/07/22 08:18:20;;;;;;;2.50;2.30;;;;;;;;;;5155467;27;20222;-56
2023/07/22 08:20:47;;;;;;;3.58;2.40;;;;;;;;;;5156344;27;20202;-57
2023/07/22 08:23:14;;;;;;;2.42;2.20;;;;;;;;;;5154365;27;20198;-57
2023/07/22 08:25:40;;;;;;;2.00;1.90;;;;;;;;;;5154963;27;20247;-57
2023/07/22 08:28:06;;;;;;;2.30;2.20;;;;;;;;;;5155193;27;20214;-57
2023/07/22 08:30:32;;;;;;;4.00;2.15;;;;;;;;;;5155497;27;20550;-58
2023/07/22 08:33:00;;;;;;;5.68;2.30;;;;;;;;;;5157806;27;20262;-57
2023/07/22 08:35:26;;;;;;;11.52;2.45;;;;;;;;;;5158352;27;20225;-58
2023/07/22 08:37:53;;;;;;;12.10;1.98;;;;;;;;;;5157187;27;20198;-57
2023/07/22 08:40:20;;;;;;;7.93;1.90;;;;;;;;;;5155307;27;20204;-58
2023/07/22 08:42:46;;;;;;;3.10;1.75;;;;;;;;;;5155794;27;20210;-57
2023/07/22 08:45:14;;;;;;;5.20;2.10;;;;;;;;;;5158572;27;20198;-57
2023/07/22 08:47:47;;;;;;;2.30;2.20;;;;;;;;;;5158478;27;20201;-58
2023/07/22 08:50:17;;;;;;;1.25;1.20;;;;;;;;;;5147302;27;20202;-58
2023/07/22 08:52:44;;;;;;;3.03;1.63;;;;;;;;;;5154710;27;20198;-57
2023/07/22 08:55:10;;;;;;;1.55;1.55;;;;;;;;;;5158228;27;20197;-55
2023/07/22 08:57:37;;;;;;;3.35;1.50;;;;;;;;;;5158383;27;20441;-55
2023/07/22 09:00:06;;;;;;;3.30;1.48;;;;;;;;;;5155315;27;20217;-56
2023/07/22 09:02:33;;;;;;;1.42;1.33;;;;;;;;;;5154526;27;20210;-57
2023/07/22 09:04:59;;;;;;;1.35;1.33;;;;;;;;;;5156288;27;20243;-57
2023/07/22 09:07:27;;;;;;;1.70;1.45;;;;;;;;;;5158055;27;20194;-58
2023/07/22 09:09:54;;;;;;;1.50;1.30;;;;;;;;;;5156801;27;20204;-57
2023/07/22 09:12:21;;;;;;;4.40;1.40;;;;;;;;;;5154592;27;20520;-58
2023/07/22 09:14:48;;;;;;;1.30;1.20;;;;;;;;;;5154637;27;20198;-56
2023/07/22 09:17:15;;;;;;;10.55;1.52;;;;;;;;;;5157794;27;20206;-57
2023/07/22 09:19:41;;;;;;;9.60;1.60;;;;;;;;;;5157832;27;20201;-57
2023/07/22 09:22:08;;;;;;;2.20;1.38;;;;;;;;;;5154297;27;20201;-57
2023/07/22 09:24:36;;;;;;;3.13;1.33;;;;;;;;;;5154155;27;20235;-56
2023/07/22 09:27:02;;;;;;;1.33;1.30;;;;;;;;;;5156704;27;20221;-58
2023/07/22 09:29:35;;;;;;;3.42;1.35;;;;;;;;;;5157870;27;20197;-58
2023/07/22 09:32:03;;;;;;;1.42;1.33;;;;;;;;;;5155644;27;20411;-57
2023/07/22 09:34:29;;;;;;;1.48;1.38;;;;;;;;;;5153731;27;20197;-58
2023/07/22 09:36:56;;;;;;;3.78;1.05;;;;;;;;;;5155358;27;20218;-57
2023/07/22 09:39:23;;;;;;;3.90;1.08;;;;;;;;;;5157657;27;20201;-56
2023/07/22 09:41:52;;;;;;;3.05;1.30;;;;;;;;;;5156820;27;20224;-58
2023/07/22 09:44:18;;;;;;;1.33;1.23;;;;;;;;;;5153792;27;20201;-57
2023/07/22 09:46:47;;;;;;;3.83;1.50;;;;;;;;;;5153782;27;20366;-56
2023/07/22 09:49:14;;;;;;;1.50;1.00;;;;;;;;;;5145657;27;20545;-56
2023/07/22 09:51:40;;;;;;;1.10;1.10;;;;;;;;;;5153725;27;20213;-56
2023/07/22 09:54:07;;;;;;;1.17;1.10;;;;;;;;;;5156342;27;20201;-57
2023/07/22 09:56:44;;;;;;;1.15;1.05;;;;;;;;;;5157086;27;20212;-57
2023/07/22 09:59:12;;;;;;;3.38;1.83;;;;;;;;;;5153472;27;20217;-56
2023/07/22 10:01:39;;;;;;;2.42;1.40;;;;;;;;;;5153267;27;20210;-56
2023/07/22 10:04:06;;;;;;;6.80;1.38;;;;;;;;;;5155985;27;20205;-58
2023/07/22 10:06:33;;;;;;;6.85;1.52;;;;;;;;;;5157039;27;20223;-58
2023/07/22 10:09:03;;;;;;;1.38;1.30;;;;;;;;;;5155416;27;20197;-58
2023/07/22 10:11:32;;;;;;;1.40;1.40;;;;;;;;;;5153225;27;20243;-57
2023/07/22 10:13:59;;;;;;;1.30;1.20;;;;;;;;;;5154294;27;20208;-58
2023/07/22 10:16:27;;;;;;;1.33;1.08;;;;;;;;;;5155855;27;20227;-58
2023/07/22 10:18:54;;;;;;;1.38;1.30;;;;;;;;;;5155869;27;20197;-58
2023/07/22 10:21:20;;;;;;;1.25;1.23;;;;;;;;;;5153112;27;20494;-58
2023/07/22 10:23:48;;;;;;;1.33;1.30;;;;;;;;;;5152860;27;20427;-58
2023/07/22 10:26:15;;;;;;;2.15;1.35;;;;;;;;;;5145028;27;20194;-58
2023/07/22 10:28:42;;;;;;;1.52;1.42;;;;;;;;;;5152741;27;20537;-58
2023/07/22 10:31:08;;;;;;;6.53;1.10;;;;;;;;;;5155859;27;20210;-58
2023/07/22 10:33:36;;;;;;;1.55;1.42;;;;;;;;;;5156332;27;20204;-57
2023/07/22 10:36:05;;;;;;;1.60;1.10;;;;;;;;;;5154106;27;20266;-57
2023/07/22 10:38:31;;;;;;;1.48;1.38;;;;;;;;;;5152593;27;20498;-57
2023/07/22 10:40:58;;;;;;;1.10;1.10;;;;;;;;;;5153950;27;20505;-57
2023/07/22 10:43:26;;;;;;;1.48;1.38;;;;;;;;;;5156027;27;20497;-58
2023/07/22 10:45:53;;;;;;;2.78;1.20;;;;;;;;;;5153710;27;20198;-58
2023/07/22 10:48:20;;;;;;;1.40;1.23;;;;;;;;;;5150934;27;20230;-58
2023/07/22 10:50:48;;;;;;;3.47;3.17;;;;;;;;;;5150862;27;20198;-58
2023/07/22 10:53:20;;;;;;;3.03;1.38;;;;;;;;;;5150793;27;20678;-58
2023/07/22 10:56:05;;;;;;;0.88;0.88;;;;;;;;;;5150451;27;20206;-58
2023/07/22 10:58:32;;;;;;;1.00;1.00;;;;;;;;;;5145234;27;20206;-58
2023/07/22 11:01:13;;;;;;;4.85;1.30;;;;;;;;;;5153098;27;20554;-58
2023/07/22 11:04:03;;;;;;;1.38;1.10;;;;;;;;;;5155652;27;20205;-58
2023/07/22 11:06:31;;;;;;;3.60;1.08;;;;;;;;;;5145882;27;20194;-58
2023/07/22 11:08:57;;;;;;;2.13;0.93;;;;;;;;;;5153378;27;20393;-58
2023/07/22 11:11:34;;;;;;;2.15;1.17;;;;;;;;;;5156076;27;20542;-58
2023/07/22 11:14:13;;;;;;;3.22;1.20;;;;;;;;;;5154079;27;20219;-58
2023/07/22 11:16:39;;;;;;;2.42;1.00;;;;;;;;;;5151903;27;20269;-58
2023/07/22 11:19:05;;;;;;;1.65;1.45;;;;;;;;;;5153916;27;20212;-58
2023/07/22 11:21:33;;;;;;;2.15;1.50;;;;;;;;;;5155335;27;20197;-56
2023/07/22 11:23:59;;;;;;;1.85;1.70;;;;;;;;;;5154162;27;20204;-57
2023/07/22 11:26:25;;;;;;;2.05;1.50;;;;;;;;;;5150342;27;20260;-58
2023/07/22 11:28:53;;;;;;;2.60;1.50;;;;;;;;;;5151690;27;20270;-57
2023/07/22 11:31:19;;;;;;;1.65;1.55;;;;;;;;;;5155912;27;20202;-58
2023/07/22 11:33:47;;;;;;;2.45;1.05;;;;;;;;;;5147940;27;20213;-58
2023/07/22 11:36:13;;;;;;;2.67;1.25;;;;;;;;;;5154812;27;20589;-58
2023/07/22 11:38:41;;;;;;;1.65;1.55;;;;;;;;;;5155317;27;20204;-58
2023/07/22 11:41:09;;;;;;;1.80;1.38;;;;;;;;;;5146850;27;20265;-57
2023/07/22 11:43:35;;;;;;;1.42;1.42;;;;;;;;;;5155120;27;20221;-58
2023/07/22 11:46:01;;;;;;;1.45;1.45;;;;;;;;;;5153894;27;20500;-57
2023/07/22 11:48:28;;;;;;;1.52;1.42;;;;;;;;;;5151796;27;20222;-58
2023/07/22 11:50:59;;;;;;;1.40;1.30;;;;;;;;;;5151991;27;20197;-57
2023/07/22 11:53:27;;;;;;;2.28;1.10;;;;;;;;;;5155208;27;20430;-58
2023/07/22 11:55:54;;;;;;;2.33;1.60;;;;;;;;;;5154934;27;20198;-58
2023/07/22 11:58:25;;;;;;;1.27;1.23;;;;;;;;;;5151406;27;20222;-58
2023/07/22 12:01:02;;;;;;;4.10;1.45;;;;;;;;;;5151820;27;20209;-58
2023/07/22 12:03:31;;;;;;;2.25;1.75;;;;;;;;;;5144867;27;20234;-57
2023/07/22 12:06:01;;;;;;;1.95;1.55;;;;;;;;;;5152220;27;20390;-58
2023/07/22 12:08:27;;;;;;;1.55;1.45;;;;;;;;;;5155144;27;20500;-58
2023/07/22 12:10:58;;;;;;;2.75;1.48;;;;;;;;;;5155289;27;20528;-58
2023/07/22 12:13:24;;;;;;;1.48;1.38;;;;;;;;;;5143732;27;20505;-58
2023/07/22 12:15:59;;;;;;;2.63;1.63;;;;;;;;;;5151755;27;20202;-58
2023/07/22 12:18:26;;;;;;;1.25;1.25;;;;;;;;;;5144142;27;20217;-58
2023/07/22 12:20:52;;;;;;;2.92;1.50;;;;;;;;;;5151515;27;20202;-56
2023/07/22 12:23:18;;;;;;;1.42;1.33;;;;;;;;;;5151397;27;20433;-58
2023/07/22 12:25:45;;;;;;;1.35;1.35;;;;;;;;;;5151470;27;20197;-58
2023/07/22 12:28:12;;;;;;;1.63;1.38;;;;;;;;;;5153771;27;20214;-58
2023/07/22 12:30:39;;;;;;;1.35;1.25;;;;;;;;;;5155350;27;20204;-58
2023/07/22 12:33:05;;;;;;;5.53;1.80;;;;;;;;;;5153574;27;20235;-57
2023/07/22 12:35:31;;;;;;;1.70;1.30;;;;;;;;;;5156540;27;20477;-58
2023/07/22 12:37:57;;;;;;;1.40;1.30;;;;;;;;;;5154508;27;20217;-58
2023/07/22 12:40:24;;;;;;;2.03;1.35;;;;;;;;;;5153791;27;20198;-58
2023/07/22 12:42:50;;;;;;;1.15;1.15;;;;;;;;;;5155315;27;20198;-57
2023/07/22 12:45:18;;;;;;;1.55;1.30;;;;;;;;;;5158001;27;20201;-58
2023/07/22 12:47:44;;;;;;;1.23;1.23;;;;;;;;;;5158672;27;20573;-57
2023/07/22 12:50:10;;;;;;;1.77;1.00;;;;;;;;;;5156497;27;20197;-56
2023/07/22 12:52:37;;;;;;;2.15;1.20;;;;;;;;;;5155280;27;20267;-57
2023/07/22 12:55:03;;;;;;;1.67;1.40;;;;;;;;;;5155875;27;20201;-58
2023/07/22 12:57:29;;;;;;;1.25;1.13;;;;;;;;;;5158304;27;20231;-58
2023/07/22 12:59:56;;;;;;;1.60;1.20;;;;;;;;;;5158416;27;20497;-57
2023/07/22 13:02:25;;;;;;;3.08;1.60;;;;;;;;;;5158629;27;20250;-58
2023/07/22 13:04:51;;;;;;;1.50;1.50;;;;;;;;;;5158143;27;20193;-58
2023/07/22 13:07:17;;;;;;;2.08;1.40;;;;;;;;;;5155690;27;20198;-58
2023/07/22 13:09:46;;;;;;;2.72;1.60;;;;;;;;;;5154750;27;20243;-57
2023/07/22 13:12:12;;;;;;;3.40;1.25;;;;;;;;;;5156955;27;20212;-57
2023/07/22 13:14:38;;;;;;;1.88;1.77;;;;;;;;;;5158050;27;20201;-58
2023/07/22 13:17:05;;;;;;;1.80;1.70;;;;;;;;;;5156930;27;20212;-58
2023/07/22 13:19:32;;;;;;;3.50;1.50;;;;;;;;;;5154541;27;20521;-58
2023/07/22 13:21:59;;;;;;;1.58;1.48;;;;;;;;;;5154935;27;20198;-56
2023/07/22 13:24:25;;;;;;;2.03;1.48;;;;;;;;;;5157874;27;20201;-57
2023/07/22 13:26:51;;;;;;;1.92;1.40;;;;;;;;;;5157812;27;20226;-58
2023/07/22 13:29:17;;;;;;;1.75;1.73;;;;;;;;;;5155553;27;20203;-58
2023/07/22 13:31:44;;;;;;;1.95;1.80;;;;;;;;;;5154170;27;20213;-56
2023/07/22 13:34:10;;;;;;;1.83;1.70;;;;;;;;;;5155477;27;20520;-57
2023/07/22 13:36:38;;;;;;;1.52;1.50;;;;;;;;;;5157873;27;20200;-57
2023/07/22 13:39:04;;;;;;;4.82;2.40;;;;;;;;;;5156962;27;20205;-58
2023/07/22 13:41:31;;;;;;;4.68;4.07;;;;;;;;;;5154219;27;20254;-58
2023/07/22 13:43:57;;;;;;;1.67;1.67;;;;;;;;;;5153826;27;20243;-58
2023/07/22 13:46:23;;;;;;;2.50;2.00;;;;;;;;;;5157299;27;20274;-58
2023/07/22 13:48:49;;;;;;;3.25;1.90;;;;;;;;;;5157549;27;20201;-58
2023/07/22 13:51:16;;;;;;;2.90;1.98;;;;;;;;;;5153918;27;20405;-58
2023/07/22 13:53:43;;;;;;;2.40;2.20;;;;;;;;;;5153739;27;20262;-58
2023/07/22 13:56:09;;;;;;;2.22;2.13;;;;;;;;;;5154971;27;20202;-56
2023/07/22 13:58:36;;;;;;;2.08;1.98;;;;;;;;;;5157304;27;20539;-58
2023/07/22 14:01:02;;;;;;;3.55;2.20;;;;;;;;;;5156673;27;20253;-57
2023/07/22 14:03:29;;;;;;;2.03;1.92;;;;;;;;;;5153636;27;20260;-56
2023/07/22 14:05:55;;;;;;;2.55;2.45;;;;;;;;;;5153318;27;20197;-58
2023/07/22 14:08:22;;;;;;;2.10;2.00;;;;;;;;;;5156491;27;20204;-57
2023/07/22 14:10:49;;;;;;;2.90;2.20;;;;;;;;;;5156968;27;20205;-56
2023/07/22 14:13:15;;;;;;;2.00;1.90;;;;;;;;;;5154766;27;20392;-57
2023/07/22 14:15:42;;;;;;;2.22;2.13;;;;;;;;;;5153201;27;20202;-58
2023/07/22 14:18:08;;;;;;;2.17;1.90;;;;;;;;;;5153699;27;20224;-58
2023/07/22 14:20:34;;;;;;;2.50;2.30;;;;;;;;;;5153624;27;20208;-57
2023/07/22 14:23:01;;;;;;;2.30;2.20;;;;;;;;;;5153852;27;20390;-58
2023/07/22 14:25:27;;;;;;;3.13;2.55;;;;;;;;;;5145141;27;20413;-58
2023/07/22 14:27:55;;;;;;;4.22;3.10;;;;;;;;;;5153163;27;20318;-58
2023/07/22 14:30:21;;;;;;;3.30;3.10;;;;;;;;;;5156166;27;20372;-57
2023/07/22 14:32:47;;;;;;;2.65;2.45;;;;;;;;;;5150173;27;20198;-58
2023/07/22 14:35:13;;;;;;;2.45;2.25;;;;;;;;;;5154515;27;20257;-58
2023/07/22 14:37:40;;;;;;;2.72;2.53;;;;;;;;;;5156561;27;20217;-58
2023/07/22 14:40:08;;;;;;;3.25;3.05;;;;;;;;;;5155725;27;20202;-58
2023/07/22 14:42:34;;;;;;;2.70;2.53;;;;;;;;;;5152870;27;20198;-56